createdAt,value
2018-02-04T00:00:58.929Z,-0.20
2018-02-04T00:03:27.056Z,-0.20
2018-02-04T00:05:55.983Z,-0.20
2018-02-04T00:08:24.126Z,-0.20
2018-02-04T00:10:53.030Z,-0.20
2018-02-04T00:13:21.188Z,-0.20
2018-02-04T00:15:50.090Z,-0.20
2018-02-04T00:18:18.248Z,-0.20
2018-02-04T00:20:47.144Z,-0.10
2018-02-04T00:23:15.309Z,0.00
2018-02-04T00:25:43.441Z,-0.20
2018-02-04T00:28:11.603Z,-0.30
2018-02-04T00:30:39.733Z,-0.20
2018-02-04T00:33:07.896Z,-0.20
2018-02-04T00:35:36.025Z,-0.20
2018-02-04T00:38:04.191Z,-0.20
2018-02-04T00:40:32.335Z,-0.20
2018-02-04T00:43:00.497Z,-0.10
2018-02-04T00:45:29.406Z,-0.20
2018-02-04T00:47:57.565Z,-0.20
2018-02-04T00:50:26.468Z,-0.20
2018-02-04T00:52:54.625Z,-0.10
2018-02-04T00:55:23.532Z,-0.20
2018-02-04T00:57:51.689Z,-0.30
2018-02-04T01:00:19.822Z,-0.20
2018-02-04T01:02:47.982Z,-0.20
2018-02-04T01:05:16.121Z,-0.20
2018-02-04T01:07:44.277Z,-0.20
2018-02-04T01:10:12.410Z,-0.20
2018-02-04T01:12:40.570Z,-0.20
2018-02-04T01:15:08.709Z,-0.20
2018-02-04T01:17:36.874Z,-0.20
2018-02-04T01:20:05.782Z,-0.20
2018-02-04T01:22:33.946Z,-0.20
2018-02-04T01:25:02.849Z,-0.20
2018-02-04T01:27:31.004Z,-0.20
2018-02-04T01:29:59.907Z,-0.20
2018-02-04T01:32:28.075Z,-0.20
2018-02-04T01:34:56.964Z,-0.10
2018-02-04T01:37:25.128Z,-0.10
2018-02-04T01:39:53.261Z,-0.20
2018-02-04T01:42:21.421Z,-0.20
2018-02-04T01:44:49.563Z,-0.20
2018-02-04T01:47:17.721Z,-0.20
2018-02-04T01:49:45.854Z,-0.20
2018-02-04T01:52:14.016Z,-0.20
2018-02-04T01:54:42.162Z,-0.20
2018-02-04T01:57:10.325Z,-0.20
2018-02-04T01:59:39.230Z,-0.20
2018-02-04T02:02:07.399Z,-0.20
2018-02-04T02:04:36.300Z,-0.20
2018-02-04T02:07:04.485Z,-0.10
2018-02-04T02:09:32.613Z,-0.20
2018-02-04T02:12:00.778Z,-0.10
2018-02-04T02:14:28.909Z,-0.10
2018-02-04T02:16:57.068Z,-0.10
2018-02-04T02:19:25.202Z,-0.20
2018-02-04T02:21:53.352Z,0.00
2018-02-04T02:24:21.489Z,-0.10
2018-02-04T02:26:49.649Z,-0.10
2018-02-04T02:29:18.561Z,-0.10
2018-02-04T02:31:46.723Z,-0.10
2018-02-04T02:34:14.865Z,-0.10
2018-02-04T02:36:43.028Z,-0.10
2018-02-04T02:39:11.171Z,-0.10
2018-02-04T02:41:39.349Z,-0.10
2018-02-04T02:44:07.485Z,-0.10
2018-02-04T02:46:35.624Z,-0.10
2018-02-04T02:49:03.794Z,-0.10
2018-02-04T02:51:31.926Z,-0.10
2018-02-04T02:54:00.086Z,-0.10
2018-02-04T02:56:28.222Z,-0.10
2018-02-04T02:58:56.381Z,-0.10
2018-02-04T03:01:24.517Z,-0.10
2018-02-04T03:03:52.681Z,-0.10
2018-02-04T03:06:20.822Z,-0.10
2018-02-04T03:08:48.977Z,-0.10
2018-02-04T03:11:17.112Z,-0.10
2018-02-04T03:13:45.270Z,-0.20
2018-02-04T03:16:13.409Z,-0.20
2018-02-04T03:18:41.577Z,-0.20
2018-02-04T03:21:09.714Z,-0.30
2018-02-04T03:23:37.873Z,-0.30
2018-02-04T03:26:06.010Z,-0.20
2018-02-04T03:28:34.172Z,-0.40
2018-02-04T03:31:02.305Z,-0.50
2018-02-04T03:33:30.469Z,-0.60
2018-02-04T03:35:58.593Z,-0.60
2018-02-04T03:38:26.757Z,-0.70
2018-02-04T03:40:54.894Z,-0.70
2018-02-04T03:43:23.058Z,-0.90
2018-02-04T03:45:51.192Z,-0.80
2018-02-04T03:48:19.355Z,-1.00
2018-02-04T03:50:47.490Z,-1.10
2018-02-04T03:53:15.649Z,-1.20
2018-02-04T03:55:43.780Z,-1.30
2018-02-04T03:58:11.944Z,-1.30
2018-02-04T04:00:40.078Z,-1.40
2018-02-04T04:03:08.246Z,-1.40
2018-02-04T04:05:36.388Z,-1.50
2018-02-04T04:08:04.552Z,-1.60
2018-02-04T04:10:33.460Z,-1.70
2018-02-04T04:13:01.621Z,-1.70
2018-02-04T04:15:30.522Z,-1.80
2018-02-04T04:17:58.680Z,-1.90
2018-02-04T04:20:26.808Z,-1.70
2018-02-04T04:22:54.963Z,-2.00
2018-02-04T04:25:23.105Z,-2.00
2018-02-04T04:27:51.266Z,-2.00
2018-02-04T04:30:19.406Z,-2.00
2018-02-04T04:32:47.570Z,-2.10
2018-02-04T04:35:15.708Z,-2.20
2018-02-04T04:37:43.872Z,-2.10
2018-02-04T04:40:12.775Z,-2.20
2018-02-04T04:42:40.933Z,-2.20
2018-02-04T04:45:09.834Z,-2.30
2018-02-04T04:47:38.001Z,-2.40
2018-02-04T04:50:06.909Z,-2.40
2018-02-04T04:52:35.069Z,-2.30
2018-02-04T04:55:03.972Z,-2.40
2018-02-04T04:57:32.132Z,-2.40
2018-02-04T05:00:01.037Z,-2.50
2018-02-04T05:02:29.201Z,-2.30
2018-02-04T05:04:58.099Z,-2.40
2018-02-04T05:07:26.256Z,-2.70
2018-02-04T05:09:55.152Z,-2.60
2018-02-04T05:12:23.313Z,-2.70
2018-02-04T05:14:51.482Z,-2.40
2018-02-04T05:17:20.400Z,-2.70
2018-02-04T05:19:48.559Z,-2.40
2018-02-04T05:22:17.461Z,-2.60
2018-02-04T05:24:46.380Z,-2.60
2018-02-04T05:27:15.289Z,-2.70
2018-02-04T05:29:43.448Z,-2.70
2018-02-04T05:32:11.580Z,-2.60
2018-02-04T05:34:40.518Z,-2.50
2018-02-04T05:37:08.657Z,-2.50
2018-02-04T05:39:37.582Z,-2.60
2018-02-04T05:42:05.733Z,-2.50
2018-02-04T05:44:33.893Z,-2.50
2018-02-04T05:47:02.037Z,-2.60
2018-02-04T05:49:30.210Z,-2.50
2018-02-04T05:51:58.346Z,-2.40
2018-02-04T05:54:26.509Z,-2.50
2018-02-04T05:56:54.644Z,-2.50
2018-02-04T05:59:22.801Z,-2.40
2018-02-04T06:01:50.940Z,-2.40
2018-02-04T06:04:19.103Z,-2.40
2018-02-04T06:06:47.237Z,-2.30
2018-02-04T06:09:15.396Z,-2.30
2018-02-04T06:11:43.539Z,-2.30
2018-02-04T06:14:11.699Z,-2.20
2018-02-04T06:16:39.832Z,-2.20
2018-02-04T06:19:07.996Z,-2.00
2018-02-04T06:21:36.132Z,-2.10
2018-02-04T06:24:04.296Z,-2.00
2018-02-04T06:26:32.439Z,-2.00
2018-02-04T06:29:00.592Z,-1.90
2018-02-04T06:31:28.730Z,-1.90
2018-02-04T06:33:56.884Z,-1.80
2018-02-04T06:36:25.025Z,-1.90
2018-02-04T06:38:53.189Z,-1.70
2018-02-04T06:41:21.320Z,-1.70
2018-02-04T06:43:49.492Z,-1.50
2018-02-04T06:46:17.621Z,-1.60
2018-02-04T06:48:45.784Z,-1.50
2018-02-04T06:51:14.687Z,-1.50
2018-02-04T06:53:42.844Z,-1.30
2018-02-04T06:56:10.984Z,-1.50
2018-02-04T06:58:39.151Z,-1.40
2018-02-04T07:01:07.285Z,-1.20
2018-02-04T07:03:35.454Z,-1.40
2018-02-04T07:06:04.377Z,-1.30
2018-02-04T07:08:32.585Z,-1.30
2018-02-04T07:11:00.737Z,-1.30
2018-02-04T07:13:28.915Z,-1.30
2018-02-04T07:15:57.053Z,-1.20
2018-02-04T07:18:25.217Z,-1.20
2018-02-04T07:20:53.356Z,-1.10
2018-02-04T07:23:21.539Z,-1.20
2018-02-04T07:25:49.689Z,-1.20
2018-02-04T07:28:17.880Z,-1.20
2018-02-04T07:30:46.019Z,-1.00
2018-02-04T07:33:14.183Z,-1.20
2018-02-04T07:35:42.366Z,-1.20
2018-02-04T07:38:10.529Z,-1.10
2018-02-04T07:40:38.666Z,-1.10
2018-02-04T07:43:07.599Z,-1.00
2018-02-04T07:45:35.765Z,-1.10
2018-02-04T07:48:03.897Z,-1.00
2018-02-04T07:50:32.070Z,-1.00
2018-02-04T07:53:00.226Z,-0.90
2018-02-04T07:55:28.383Z,-0.90
2018-02-04T07:57:56.522Z,-0.80
2018-02-04T08:00:24.684Z,-0.80
2018-02-04T08:02:52.826Z,-0.80
2018-02-04T08:05:20.989Z,-0.70
2018-02-04T08:07:49.158Z,-0.60
2018-02-04T08:10:17.321Z,-0.50
2018-02-04T08:12:45.470Z,-0.60
2018-02-04T08:15:13.650Z,-0.50
2018-02-04T08:17:41.793Z,-0.40
2018-02-04T08:20:10.723Z,-0.40
2018-02-04T08:22:38.881Z,-0.40
2018-02-04T08:25:07.057Z,-0.40
2018-02-04T08:27:35.215Z,-0.30
2018-02-04T08:30:03.510Z,-0.30
2018-02-04T08:32:31.639Z,-0.20
2018-02-04T08:34:59.811Z,-0.30
2018-02-04T08:37:27.957Z,-0.20
2018-02-04T08:39:56.116Z,-0.20
2018-02-04T08:42:24.244Z,-0.10
2018-02-04T08:44:52.405Z,-0.10
2018-02-04T08:47:20.537Z,-0.10
2018-02-04T08:49:48.702Z,0.00
2018-02-04T08:52:16.833Z,0.00
2018-02-04T08:54:44.993Z,0.00
2018-02-04T08:57:13.132Z,0.00
2018-02-04T08:59:41.294Z,0.10
2018-02-04T09:02:09.426Z,0.10
2018-02-04T09:04:37.580Z,0.10
2018-02-04T09:07:05.713Z,0.10
2018-02-04T09:09:33.872Z,0.10
2018-02-04T09:12:02.000Z,0.10
2018-02-04T09:14:30.157Z,0.10
2018-02-04T09:16:58.285Z,0.10
2018-02-04T09:19:26.445Z,0.20
2018-02-04T09:21:55.341Z,0.20
2018-02-04T09:24:23.499Z,0.20
2018-02-04T09:26:51.629Z,0.30
2018-02-04T09:29:19.785Z,0.30
2018-02-04T09:31:47.917Z,0.40
2018-02-04T09:34:16.071Z,0.50
2018-02-04T09:36:44.217Z,0.50
2018-02-04T09:39:12.426Z,0.60
2018-02-04T09:41:40.633Z,0.60
2018-02-04T09:44:08.813Z,0.60
2018-02-04T09:46:36.953Z,0.60
2018-02-04T09:49:05.180Z,0.70
2018-02-04T09:51:33.417Z,0.60
2018-02-04T09:54:01.624Z,0.70
2018-02-04T09:56:29.786Z,0.70
2018-02-04T09:58:58.046Z,0.70
2018-02-04T10:01:26.970Z,0.80
2018-02-04T10:03:55.156Z,0.70
2018-02-04T10:06:23.361Z,0.80
2018-02-04T10:08:51.582Z,0.80
2018-02-04T10:11:19.730Z,0.90
2018-02-04T10:13:48.375Z,1.00
2018-02-04T10:16:17.365Z,1.00
2018-02-04T10:18:45.508Z,1.10
2018-02-04T10:21:13.661Z,1.10
2018-02-04T10:23:41.853Z,1.10
2018-02-04T10:26:10.021Z,1.10
2018-02-04T10:28:38.160Z,1.10
2018-02-04T10:31:06.333Z,1.10
2018-02-04T10:33:34.513Z,1.20
2018-02-04T10:36:02.676Z,1.20
2018-02-04T10:38:30.812Z,1.30
2018-02-04T10:40:59.000Z,1.30
2018-02-04T10:43:27.154Z,1.30
2018-02-04T10:45:55.334Z,1.30
2018-02-04T10:48:24.241Z,1.40
2018-02-04T10:53:55.353Z,1.40
2018-02-04T10:56:23.509Z,1.50
2018-02-04T10:58:51.666Z,1.40
2018-02-04T11:01:19.820Z,1.50
2018-02-04T11:03:47.954Z,1.40
2018-02-04T11:06:16.228Z,1.40
2018-02-04T11:08:45.131Z,1.50
2018-02-04T11:11:13.280Z,1.50
2018-02-04T11:13:42.196Z,1.60
2018-02-04T11:16:10.361Z,1.50
2018-02-04T11:18:39.937Z,1.60
2018-02-04T11:21:08.895Z,1.60
2018-02-04T11:23:37.047Z,1.60
2018-02-04T11:26:05.210Z,1.60
2018-02-04T11:28:33.341Z,1.60
2018-02-04T11:31:22.169Z,1.60
2018-02-04T11:33:50.301Z,1.50
2018-02-04T11:36:18.457Z,1.50
2018-02-04T11:38:46.605Z,1.50
2018-02-04T11:41:14.762Z,1.50
2018-02-04T11:43:42.897Z,1.40
2018-02-04T11:46:11.111Z,1.50
2018-02-04T11:48:39.262Z,1.40
2018-02-04T11:51:07.440Z,1.40
2018-02-04T11:53:35.583Z,1.40
2018-02-04T11:56:04.507Z,1.30
2018-02-04T11:58:32.668Z,1.30
2018-02-04T12:01:00.838Z,1.30
2018-02-04T12:03:28.982Z,1.30
2018-02-04T12:05:57.152Z,1.40
2018-02-04T12:08:25.285Z,1.40
2018-02-04T12:10:53.456Z,1.40
2018-02-04T12:13:21.664Z,1.40
2018-02-04T12:15:49.859Z,1.40
2018-02-04T12:18:19.040Z,1.40
2018-02-04T12:20:47.224Z,1.40
2018-02-04T12:23:16.141Z,1.50
2018-02-04T12:25:44.329Z,1.50
2018-02-04T12:28:12.497Z,1.50
2018-02-04T12:30:40.679Z,1.70
2018-02-04T12:33:08.835Z,1.70
2018-02-04T12:35:37.021Z,1.70
2018-02-04T12:38:05.153Z,1.80
2018-02-04T12:40:33.313Z,1.80
2018-02-04T12:43:01.452Z,1.80
2018-02-04T12:45:29.649Z,1.90
2018-02-04T12:47:57.794Z,1.90
2018-02-04T12:50:25.976Z,1.90
2018-02-04T12:52:54.104Z,2.00
2018-02-04T12:55:22.314Z,2.00
2018-02-04T12:57:50.577Z,2.00
2018-02-04T13:00:18.753Z,2.00
2018-02-04T13:02:46.880Z,2.00
2018-02-04T13:05:15.059Z,2.10
2018-02-04T13:07:43.196Z,2.20
2018-02-04T13:10:11.359Z,2.20
2018-02-04T13:12:39.540Z,2.20
2018-02-04T13:15:07.826Z,2.20
2018-02-04T13:17:35.960Z,2.20
2018-02-04T13:20:04.115Z,2.20
2018-02-04T13:22:32.245Z,2.20
2018-02-04T13:25:00.406Z,2.20
2018-02-04T13:27:28.539Z,2.20
2018-02-04T13:29:57.452Z,2.30
2018-02-04T13:32:25.593Z,2.20
2018-02-04T13:34:53.749Z,2.30
2018-02-04T13:37:21.911Z,2.30
2018-02-04T13:39:50.046Z,2.30
2018-02-04T13:42:18.210Z,2.30
2018-02-04T13:44:46.353Z,2.40
2018-02-04T13:47:14.513Z,2.40
2018-02-04T13:49:42.667Z,2.40
2018-02-04T13:52:10.830Z,2.40
2018-02-04T13:54:38.957Z,2.40
2018-02-04T13:57:07.113Z,2.40
2018-02-04T13:59:35.258Z,2.40
2018-02-04T14:02:03.424Z,2.40
2018-02-04T14:04:31.566Z,2.40
2018-02-04T14:06:59.791Z,2.40
2018-02-04T14:09:28.037Z,2.40
2018-02-04T14:11:56.259Z,2.40
2018-02-04T14:14:24.403Z,2.40
2018-02-04T14:16:52.684Z,2.40
2018-02-04T14:19:20.822Z,2.40
2018-02-04T14:21:49.018Z,2.40
2018-02-04T14:24:17.186Z,2.40
2018-02-04T14:26:45.363Z,2.40
2018-02-04T14:29:13.489Z,2.50
2018-02-04T14:31:41.652Z,2.50
2018-02-04T14:34:09.801Z,2.50
2018-02-04T14:36:38.018Z,2.50
2018-02-04T14:39:06.141Z,2.50
2018-02-04T14:41:34.321Z,2.50
2018-02-04T14:44:02.508Z,2.50
2018-02-04T14:46:30.738Z,2.50
2018-02-04T14:48:59.514Z,2.50
2018-02-04T14:51:28.431Z,2.50
2018-02-04T14:53:56.561Z,2.50
2018-02-04T14:56:25.510Z,2.50
2018-02-04T14:58:53.646Z,2.50
2018-02-04T15:01:21.821Z,2.50
2018-02-04T15:03:49.954Z,2.40
2018-02-04T15:06:18.132Z,2.40
2018-02-04T15:08:46.276Z,2.40
2018-02-04T15:11:14.464Z,2.40
2018-02-04T15:13:42.601Z,2.40
2018-02-04T15:16:10.787Z,2.40
2018-02-04T15:18:38.928Z,2.40
2018-02-04T15:21:07.099Z,2.40
2018-02-04T15:23:35.262Z,2.40
2018-02-04T15:26:04.196Z,2.30
2018-02-04T15:28:32.357Z,2.30
2018-02-04T15:31:00.610Z,2.20
2018-02-04T15:33:28.771Z,2.20
2018-02-04T15:35:57.717Z,2.20
2018-02-04T15:38:25.969Z,2.20
2018-02-04T15:40:54.175Z,2.10
2018-02-04T15:43:22.329Z,2.10
2018-02-04T15:45:50.551Z,2.10
2018-02-04T15:48:18.682Z,2.10
2018-02-04T15:50:46.856Z,2.10
2018-02-04T15:53:15.022Z,2.00
2018-02-04T15:55:43.166Z,2.10
2018-02-04T15:58:11.659Z,2.10
2018-02-04T16:00:39.824Z,2.00
2018-02-04T16:03:08.025Z,2.00
2018-02-04T16:05:36.160Z,2.00
2018-02-04T16:08:05.116Z,2.00
2018-02-04T16:10:33.307Z,1.90
2018-02-04T16:13:01.508Z,1.90
2018-02-04T16:15:29.731Z,1.90
2018-02-04T16:17:57.910Z,1.90
2018-02-04T16:20:26.059Z,1.90
2018-02-04T16:22:54.335Z,1.90
2018-02-04T16:25:22.487Z,1.90
2018-02-04T16:27:50.646Z,1.90
2018-02-04T16:30:19.556Z,1.90
2018-02-04T16:32:47.736Z,1.90
2018-02-04T16:35:15.897Z,1.90
2018-02-04T16:37:44.061Z,1.90
2018-02-04T16:40:12.189Z,1.80
2018-02-04T16:42:41.180Z,1.90
2018-02-04T16:45:09.318Z,1.80
2018-02-04T16:47:37.477Z,1.80
2018-02-04T16:50:05.609Z,1.80
2018-02-04T16:52:33.793Z,1.80
2018-02-04T16:55:01.921Z,1.80
2018-02-04T16:57:30.108Z,1.80
2018-02-04T17:00:00.037Z,1.80
2018-02-04T17:02:28.228Z,1.80
2018-02-04T17:04:56.358Z,1.80
2018-02-04T17:07:24.553Z,1.80
2018-02-04T17:09:52.762Z,1.80
2018-02-04T17:12:21.024Z,1.80
2018-02-04T17:14:49.147Z,1.80
2018-02-04T17:17:17.346Z,1.80
2018-02-04T17:19:45.529Z,1.80
2018-02-04T17:22:13.731Z,1.80
2018-02-04T17:24:41.883Z,1.80
2018-02-04T17:27:10.114Z,1.80
2018-02-04T17:29:38.292Z,1.80
2018-02-04T17:32:06.455Z,1.80
2018-02-04T17:34:34.583Z,1.80
2018-02-04T17:37:02.764Z,1.80
2018-02-04T17:39:30.906Z,1.80
2018-02-04T17:41:59.060Z,1.80
2018-02-04T17:44:27.266Z,1.80
2018-02-04T17:46:55.991Z,1.80
2018-02-04T17:49:24.153Z,1.80
2018-02-04T17:51:52.309Z,1.80
2018-02-04T17:54:20.432Z,1.80
2018-02-04T17:56:48.585Z,1.80
2018-02-04T17:59:16.710Z,1.80
2018-02-04T18:01:44.858Z,1.70
2018-02-04T18:04:12.989Z,1.70
2018-02-04T18:06:41.174Z,1.70
2018-02-04T18:09:09.296Z,1.70
2018-02-04T18:11:37.475Z,1.60
2018-02-04T18:14:05.597Z,1.70
2018-02-04T18:16:33.756Z,1.70
2018-02-04T18:19:01.902Z,1.60
2018-02-04T18:21:30.040Z,1.60
2018-02-04T18:23:58.293Z,1.60
2018-02-04T18:26:26.425Z,1.60
2018-02-04T18:28:54.580Z,1.70
2018-02-04T18:31:22.712Z,1.60
2018-02-04T18:33:50.848Z,1.60
2018-02-04T18:36:19.068Z,1.60
2018-02-04T18:38:47.210Z,1.70
2018-02-04T18:41:15.336Z,1.60
2018-02-04T18:43:43.524Z,1.60
2018-02-04T18:46:11.668Z,1.60
2018-02-04T18:48:39.835Z,1.50
2018-02-04T18:51:07.977Z,1.50
2018-02-04T18:53:36.146Z,1.50
2018-02-04T18:56:04.333Z,1.40
2018-02-04T18:58:32.504Z,1.40
2018-02-04T19:01:00.736Z,1.30
2018-02-04T19:03:28.942Z,1.30
2018-02-04T19:05:57.078Z,1.30
2018-02-04T19:08:25.233Z,1.30
2018-02-04T19:10:53.518Z,1.30
2018-02-04T19:13:22.471Z,1.30
2018-02-04T19:15:50.704Z,1.30
2018-02-04T19:18:18.920Z,1.40
2018-02-04T19:20:47.068Z,1.30
2018-02-04T19:23:15.250Z,1.40
2018-02-04T19:25:43.406Z,1.40
2018-02-04T19:28:11.558Z,1.40
2018-02-04T19:30:39.720Z,1.40
2018-02-04T19:33:07.921Z,1.40
2018-02-04T19:35:36.049Z,1.30
2018-02-04T19:38:04.355Z,1.30
2018-02-04T19:40:32.497Z,1.30
2018-02-04T19:43:00.669Z,1.30
2018-02-04T19:45:28.833Z,1.20
2018-02-04T19:47:57.005Z,1.20
2018-02-04T19:50:25.129Z,1.20
2018-02-04T19:52:53.321Z,1.30
2018-02-04T19:55:21.455Z,1.30
2018-02-04T19:57:50.373Z,1.30
2018-02-04T20:00:18.502Z,1.30
2018-02-04T20:02:46.687Z,1.30
2018-02-04T20:05:14.849Z,1.30
2018-02-04T20:07:42.988Z,1.40
2018-02-04T20:10:11.126Z,1.40
2018-02-04T20:12:39.293Z,1.40
2018-02-04T20:15:08.201Z,1.40
2018-02-04T20:17:36.365Z,1.40
2018-02-04T20:20:05.251Z,1.40
2018-02-04T20:22:33.400Z,1.40
2018-02-04T20:25:01.564Z,1.40
2018-02-04T20:27:29.722Z,1.40
2018-02-04T20:29:57.938Z,1.40
2018-02-04T20:32:37.777Z,1.40
2018-02-04T20:35:05.926Z,1.40
2018-02-04T20:37:34.125Z,1.50
2018-02-04T20:40:02.248Z,1.50
2018-02-04T20:42:30.429Z,1.40
2018-02-04T20:44:58.610Z,1.50
2018-02-04T20:47:26.761Z,1.40
2018-02-04T20:49:54.970Z,1.50
2018-02-04T20:52:23.131Z,1.40
2018-02-04T20:54:51.399Z,1.40
2018-02-04T20:57:19.672Z,1.50
2018-02-04T20:59:47.953Z,1.50
2018-02-04T21:02:16.205Z,1.40
2018-02-04T21:04:44.456Z,1.50
2018-02-04T21:07:13.449Z,1.40
2018-02-04T21:09:42.482Z,1.40
2018-02-04T21:12:10.672Z,1.40
2018-02-04T21:14:38.985Z,1.40
2018-02-04T21:17:07.148Z,1.40
2018-02-04T21:19:35.370Z,1.40
2018-02-04T21:22:03.652Z,1.30
2018-02-04T21:24:31.907Z,1.30
2018-02-04T21:27:00.017Z,1.30
2018-02-04T21:29:28.180Z,1.30
2018-02-04T21:31:56.322Z,1.30
2018-02-04T21:34:25.284Z,1.30
2018-02-04T21:36:53.424Z,1.30
2018-02-04T21:39:21.599Z,1.30
2018-02-04T21:41:49.737Z,1.30
2018-02-04T21:44:17.901Z,1.30
2018-02-04T21:46:46.798Z,1.40
2018-02-04T21:49:14.976Z,1.30
2018-02-04T21:51:43.870Z,1.30
2018-02-04T21:54:12.048Z,1.30
2018-02-04T21:56:40.176Z,1.30
2018-02-04T21:59:08.326Z,1.30
2018-02-04T22:01:36.470Z,1.30
2018-02-04T22:04:04.619Z,1.30
2018-02-04T22:06:32.751Z,1.30
2018-02-04T22:09:00.896Z,1.30
2018-02-04T22:11:29.020Z,1.30
2018-02-04T22:13:57.185Z,1.20
2018-02-04T22:16:25.322Z,1.20
2018-02-04T22:18:53.487Z,1.10
2018-02-04T22:21:21.624Z,1.10
2018-02-04T22:23:49.825Z,1.10
2018-02-04T22:26:17.954Z,1.20
2018-02-04T22:28:46.096Z,1.10
2018-02-04T22:31:14.221Z,1.20
2018-02-04T22:33:42.372Z,1.30
2018-02-04T22:36:10.499Z,1.30
2018-02-04T22:38:38.687Z,1.30
2018-02-04T22:41:06.806Z,1.30
2018-02-04T22:43:34.946Z,1.30
2018-02-04T22:46:03.075Z,1.30
2018-02-04T22:48:31.990Z,1.40
2018-02-04T22:51:00.110Z,1.30
2018-02-04T22:53:28.258Z,1.30
2018-02-04T22:55:56.381Z,1.30
2018-02-04T22:58:24.534Z,1.30
2018-02-04T23:00:52.654Z,1.40
2018-02-04T23:03:20.820Z,1.40
2018-02-04T23:05:48.946Z,1.30
2018-02-04T23:08:17.062Z,1.30
2018-02-04T23:10:45.212Z,1.40
2018-02-04T23:13:13.338Z,1.30
2018-02-04T23:15:41.492Z,1.30
2018-02-04T23:18:09.623Z,1.30
2018-02-04T23:20:37.772Z,1.30
2018-02-04T23:23:05.903Z,1.30
2018-02-04T23:25:34.064Z,1.30
2018-02-04T23:28:02.978Z,1.30
2018-02-04T23:30:31.124Z,1.30
2018-02-04T23:33:00.040Z,1.30
2018-02-04T23:35:28.183Z,1.30
2018-02-04T23:37:56.309Z,1.30
2018-02-04T23:40:24.465Z,1.30
2018-02-04T23:42:52.591Z,1.30
2018-02-04T23:45:20.740Z,1.30
2018-02-04T23:47:48.865Z,1.20
2018-02-04T23:50:17.828Z,1.20
2018-02-04T23:52:45.969Z,1.20
2018-02-04T23:55:14.235Z,1.20
2018-02-04T23:57:42.353Z,1.20
